MDT,Max TemperatureF,Mean TemperatureF,Min TemperatureF,Max Dew PointF,MeanDew PointF,Min DewpointF,Max Humidity, Mean Humidity, Min Humidity, Max Sea Level PressureIn, Mean Sea Level PressureIn, Min Sea Level PressureIn, Max VisibilityMiles, Mean VisibilityMiles, Min VisibilityMiles, Max Wind SpeedMPH, Mean Wind SpeedMPH, Max Gust SpeedMPH,PrecipitationIn, CloudCover, Events, WindDirDegrees
2013-9-1,86,72,58,61,53,44,93,59,25,30.06,30.00,29.89,10,10,10,21,8,25,0.00,0,,64
2013-9-2,89,73,57,53,50,48,80,54,27,30.09,30.02,29.95,10,10,10,23,12,30,0.00,0,,175
2013-9-3,95,80,64,57,54,51,67,46,24,29.99,29.95,29.88,10,10,10,29,17,37,0.00,0,,177
2013-9-4,99,81,63,56,53,48,72,45,18,30.02,29.98,29.94,10,10,10,22,12,29,0.00,0,,168
2013-9-5,99,80,61,56,50,45,72,44,16,30.05,30.00,29.96,10,10,10,23,12,30,0.00,0,,166
2013-9-6,100,85,70,47,43,40,38,26,13,29.97,29.92,29.86,10,10,10,21,13,33,0.00,0,,195
2013-9-7,100,81,62,51,46,41,52,33,14,29.94,29.89,29.85,10,10,10,20,11,26,0.00,0,,213
2013-9-8,98,86,73,51,47,36,44,28,12,29.87,29.80,29.72,10,10,10,25,14,33,0.00,0,,194
2013-9-9,97,82,67,55,50,46,61,40,18,29.80,29.72,29.64,10,10,10,29,16,39,0.00,0,,186
2013-9-10,89,73,57,62,57,53,93,62,31,30.06,29.95,29.81,10,10,7,35,7,43,0.01,2,Rain,17
2013-9-11,82,71,59,64,62,57,97,76,54,30.24,30.14,30.01,10,6,0,29,6,33,1.23,5,Fog-Rain-Thunderstorm,99
2013-9-12,65,64,62,63,62,61,100,97,93,30.29,30.21,30.11,10,4,0,21,12,25,4.11,8,Fog-Rain,103
2013-9-13,64,61,57,61,58,54,100,93,86,30.24,30.09,29.96,10,8,2,25,17,31,0.79,8,Rain,140
2013-9-14,83,71,58,65,61,55,93,72,51,29.97,29.86,29.76,10,9,4,25,15,31,0.00,5,,179
2013-9-15,67,62,57,61,57,53,97,88,78,30.29,30.11,29.84,10,8,2,20,11,24,0.01,8,Rain,18
2013-9-16,58,56,53,56,54,52,100,93,86,30.30,30.22,30.10,10,6,0,21,10,24,0.10,8,Fog-Rain,113
2013-9-17,83,70,57,63,60,55,100,73,45,30.15,29.94,29.75,10,7,1,20,12,25,0.02,5,Rain,188
2013-9-18,91,76,61,61,57,51,97,62,27,29.84,29.68,29.62,10,10,2,18,10,23,0.00,0,,208
2013-9-19,73,63,53,59,51,46,90,67,44,30.12,29.94,29.71,10,10,10,25,10,31,T,2,,1
2013-9-20,74,62,49,50,44,39,89,59,29,30.15,30.07,30.00,10,10,10,16,8,21,T,2,,193
2013-9-21,83,67,50,56,50,43,83,56,28,29.99,29.86,29.73,10,10,10,18,12,23,0.00,0,,184
2013-9-22,88,72,55,57,51,44,93,59,24,29.71,29.61,29.51,10,10,10,33,20,43,0.00,0,,168
2013-9-23,70,61,51,50,46,43,83,60,37,29.93,29.60,29.41,10,10,7,47,21,58,T,2,,274
2013-9-24,77,62,47,47,40,33,93,57,20,30.06,29.98,29.88,10,10,10,16,8,21,0.00,0,,273
2013-9-25,88,67,46,45,40,35,76,46,16,29.86,29.63,29.46,10,10,10,29,18,36,0.00,0,,170
2013-9-26,83,66,49,49,46,42,74,51,28,29.64,29.58,29.46,10,10,10,20,7,26,0.00,0,,173
2013-9-27,75,62,48,59,49,44,94,72,45,29.96,29.73,29.54,10,9,2,28,19,43,0.22,5,Rain-Thunderstorm,300
2013-9-28,68,54,40,43,35,27,96,59,22,30.12,30.07,29.96,10,10,10,25,12,31,0.00,0,,283
2013-9-29,79,63,46,43,37,31,66,42,17,30.08,29.92,29.81,10,10,10,22,12,32,0.00,0,,194
2013-9-30,84,63,41,46,42,35,83,51,18,29.83,29.75,29.68,10,10,10,21,10,28,0.00,0,,183